createdAt,value
2019-05-09T00:09:23.183Z,141.87
2019-05-09T00:14:27.395Z,89.27
2019-05-09T00:24:36.293Z,27.63
2019-05-09T00:29:47.102Z,16.97
2019-05-09T00:35:08.535Z,13.03
2019-05-09T00:40:13.202Z,10.80
2019-05-09T00:45:23.871Z,9.83
2019-05-09T00:50:29.588Z,8.53
2019-05-09T00:55:33.367Z,9.00
2019-05-09T01:00:37.851Z,528.23
2019-05-09T01:05:43.508Z,768.40
2019-05-09T01:10:46.968Z,725.12
2019-05-09T01:15:50.794Z,584.70
2019-05-09T01:20:54.802Z,481.37
2019-05-09T01:25:58.614Z,369.33
2019-05-09T01:31:04.037Z,295.63
2019-05-09T01:36:07.794Z,214.37
2019-05-09T01:41:26.236Z,135.07
2019-05-09T01:46:17.548Z,85.57
2019-05-09T01:51:23.344Z,45.70
2019-05-09T01:56:26.778Z,23.33
2019-05-09T02:01:31.530Z,13.20
2019-05-09T02:06:35.276Z,9.50
2019-05-09T02:11:42.706Z,8.30
2019-05-09T02:16:53.719Z,7.10
2019-05-09T02:21:57.742Z,6.73
2019-05-09T02:27:03.948Z,6.10
2019-05-09T02:32:07.755Z,5.63
2019-05-09T02:37:11.782Z,5.67
2019-05-09T02:42:19.290Z,5.43
2019-05-09T02:47:22.683Z,5.10
2019-05-09T02:52:28.675Z,5.20
2019-05-09T02:57:32.686Z,4.83
2019-05-09T03:02:53.094Z,4.80
2019-05-09T03:07:58.385Z,4.27
2019-05-09T03:13:02.527Z,5.00
2019-05-09T03:18:18.560Z,4.20
2019-05-09T03:23:22.294Z,3.93
2019-05-09T03:28:40.029Z,4.47
2019-05-09T03:33:43.669Z,3.60
2019-05-09T03:38:48.293Z,4.33
2019-05-09T03:43:52.036Z,4.10
2019-05-09T03:49:00.672Z,4.03
2019-05-09T03:54:04.460Z,3.53
2019-05-09T03:59:08.546Z,3.93
2019-05-09T04:04:11.971Z,3.60
2019-05-09T04:09:17.768Z,3.20
2019-05-09T04:19:27.585Z,3.73
2019-05-09T04:24:32.092Z,3.53
2019-05-09T04:29:37.387Z,3.33
2019-05-09T04:34:41.276Z,3.50
2019-05-09T04:39:44.965Z,3.37
2019-05-09T04:44:57.586Z,3.20
2019-05-09T04:49:58.236Z,3.17
2019-05-09T04:55:01.287Z,3.10
2019-05-09T05:00:07.519Z,3.00
2019-05-09T05:05:10.758Z,2.90
2019-05-09T05:10:15.015Z,2.73
2019-05-09T05:15:20.543Z,3.00
2019-05-09T05:20:27.757Z,2.97
2019-05-09T05:25:31.558Z,2.87
2019-05-09T05:30:37.329Z,3.00
2019-05-09T05:35:48.119Z,2.93
2019-05-09T05:40:51.727Z,2.70
2019-05-09T05:45:58.453Z,2.90
2019-05-09T05:51:02.273Z,2.90
2019-05-09T05:56:08.535Z,2.90
2019-05-09T06:01:12.060Z,2.70
2019-05-09T06:06:17.496Z,2.73
2019-05-09T06:16:25.161Z,2.90
2019-05-09T06:21:28.640Z,2.53
2019-05-09T06:26:32.354Z,3.20
2019-05-09T06:36:41.535Z,2.97
2019-05-09T06:41:45.354Z,2.97
2019-05-09T06:46:48.680Z,2.57
2019-05-09T06:51:52.584Z,3.07
2019-05-09T06:56:58.384Z,2.67
2019-05-09T07:02:03.399Z,2.85
2019-05-09T07:07:08.648Z,2.70
2019-05-09T07:12:12.388Z,2.70
2019-05-09T07:22:30.075Z,28.50
2019-05-09T07:27:35.794Z,169.23
2019-05-09T07:32:51.920Z,326.33
2019-05-09T07:37:57.840Z,620.60
2019-05-09T07:48:07.469Z,533.03
2019-05-09T07:53:10.887Z,430.37
2019-05-09T07:58:14.816Z,306.57
2019-05-09T08:03:18.826Z,213.27
2019-05-09T08:08:22.671Z,148.97
2019-05-09T08:13:29.022Z,96.53
2019-05-09T08:18:32.001Z,48.73
2019-05-09T08:23:37.815Z,26.87
2019-05-09T08:33:48.467Z,9.17
2019-05-09T08:38:51.622Z,5.67
2019-05-09T08:43:57.591Z,4.80
2019-05-09T08:49:00.696Z,3.50
2019-05-09T08:54:05.053Z,3.50
2019-05-09T08:59:08.744Z,3.13
2019-05-09T09:04:13.078Z,2.60
2019-05-09T09:09:17.983Z,3.00
2019-05-09T09:14:21.733Z,2.80
2019-05-09T09:19:41.362Z,2.50
2019-05-09T09:24:45.023Z,3.10
2019-05-09T09:29:48.659Z,2.50
2019-05-09T09:34:52.476Z,2.33
2019-05-09T09:45:01.665Z,2.67
2019-05-09T09:50:05.489Z,2.30
2019-05-09T10:00:14.659Z,2.47
2019-05-09T10:05:18.509Z,2.67
2019-05-09T10:10:21.781Z,2.55
2019-05-09T10:20:54.669Z,2.20
2019-05-09T10:25:58.527Z,2.35
2019-05-09T10:36:08.254Z,2.10
2019-05-09T10:41:11.618Z,2.33
2019-05-09T10:46:49.494Z,2.13
2019-05-09T10:51:39.065Z,2.20
2019-05-09T10:56:42.766Z,2.47
2019-05-09T11:01:49.430Z,2.40
2019-05-09T11:11:58.744Z,2.47
2019-05-09T11:17:11.010Z,2.23
2019-05-09T11:22:08.056Z,2.17
2019-05-09T11:27:12.011Z,2.33
2019-05-09T11:32:17.766Z,2.20
2019-05-09T11:37:22.274Z,2.23
2019-05-09T11:42:28.347Z,1.87
2019-05-09T11:47:38.168Z,2.10
2019-05-09T11:52:38.312Z,2.05
2019-05-09T11:57:42.038Z,1.77
2019-05-09T12:02:45.667Z,2.20
2019-05-09T12:07:49.458Z,1.67
2019-05-09T12:12:53.276Z,2.00
2019-05-09T12:17:59.231Z,1.70
2019-05-09T12:23:02.754Z,1.90
2019-05-09T12:28:07.861Z,1.63
2019-05-09T12:33:11.634Z,1.83
2019-05-09T12:38:17.889Z,1.93
2019-05-09T12:43:20.823Z,1.83
2019-05-09T12:48:24.737Z,1.60
2019-05-09T12:53:28.576Z,1.57
2019-05-09T12:58:32.027Z,1.67
2019-05-09T13:03:38.034Z,1.97
2019-05-09T13:13:44.747Z,1.70
2019-05-09T13:19:06.714Z,1.53
2019-05-09T13:24:10.421Z,1.60
2019-05-09T13:34:18.895Z,1.70
2019-05-09T13:39:22.967Z,1.87
2019-05-09T13:44:27.741Z,2.00
2019-05-09T13:49:31.863Z,2.00
2019-05-09T13:54:35.506Z,1.83
2019-05-09T14:04:43.048Z,2.00
2019-05-09T14:09:48.368Z,1.93
2019-05-09T14:14:52.350Z,1.77
2019-05-09T14:19:56.022Z,1.80
2019-05-09T14:24:59.835Z,1.63
2019-05-09T14:30:03.557Z,1.50
2019-05-09T14:35:08.571Z,1.82
2019-05-09T14:40:12.767Z,1.70
2019-05-09T14:45:18.113Z,1.70
2019-05-09T14:50:21.984Z,1.83
2019-05-09T14:55:25.744Z,1.77
2019-05-09T15:00:31.291Z,1.43
2019-05-09T15:05:34.978Z,1.37
2019-05-09T15:10:38.623Z,1.17
2019-05-09T15:15:42.344Z,1.50
2019-05-09T15:21:07.968Z,1.80
2019-05-09T15:26:11.480Z,1.30
2019-05-09T15:31:18.285Z,1.60
2019-05-09T15:36:21.583Z,1.50
2019-05-09T15:46:49.518Z,132.63
2019-05-09T15:51:53.280Z,51.37
2019-05-09T15:56:58.026Z,208.10
2019-05-09T16:02:01.885Z,273.40
2019-05-09T16:07:05.609Z,196.70
2019-05-09T16:12:09.416Z,122.43
2019-05-09T16:22:19.102Z,286.45
2019-05-09T16:27:22.922Z,203.63
2019-05-09T16:32:26.642Z,306.13
2019-05-09T16:37:49.815Z,126.97
2019-05-09T16:42:37.963Z,222.90
2019-05-09T16:52:45.148Z,434.33
2019-05-09T16:57:48.913Z,263.50
2019-05-09T17:02:52.647Z,352.43
2019-05-09T17:07:58.336Z,385.10
2019-05-09T17:13:02.176Z,496.48
2019-05-09T17:18:07.393Z,347.40
2019-05-09T17:23:14.981Z,223.37
2019-05-09T17:28:18.139Z,172.72
2019-05-09T17:33:21.801Z,325.40
2019-05-09T17:38:27.770Z,378.37
2019-05-09T17:43:31.557Z,454.97
2019-05-09T17:48:38.429Z,435.67
2019-05-09T17:53:42.777Z,447.30
2019-05-09T17:58:48.539Z,415.87
2019-05-09T18:03:53.645Z,293.03
2019-05-09T18:08:58.811Z,422.37
2019-05-09T18:14:02.967Z,270.77
2019-05-09T18:19:08.887Z,216.53
2019-05-09T18:24:13.662Z,202.50
2019-05-09T18:29:18.383Z,522.90
2019-05-09T18:34:22.895Z,495.43
2019-05-09T18:39:27.837Z,422.03
2019-05-09T18:47:35.708Z,297.82
2019-05-09T18:52:40.145Z,319.27
2019-05-09T18:57:45.209Z,366.40
2019-05-09T19:02:49.692Z,345.67
2019-05-09T19:07:53.964Z,357.00
2019-05-09T19:12:58.385Z,386.47
2019-05-09T19:18:19.169Z,387.43
2019-05-09T19:23:22.994Z,287.10
2019-05-09T19:28:27.154Z,190.97
2019-05-09T19:33:34.462Z,131.00
2019-05-09T19:38:39.880Z,228.40
2019-05-09T19:43:43.625Z,91.80
2019-05-09T19:48:47.630Z,194.57
2019-05-09T19:53:51.751Z,288.27
2019-05-09T19:58:56.889Z,270.60
2019-05-09T20:04:00.551Z,393.20
2019-05-09T20:09:06.192Z,486.85
2019-05-09T20:14:14.147Z,522.27
2019-05-09T20:24:23.203Z,457.53
2019-05-09T20:29:30.093Z,444.52
2019-05-09T20:34:34.941Z,412.68
2019-05-09T20:39:38.952Z,477.50
2019-05-09T20:44:42.875Z,446.83
2019-05-09T20:49:46.791Z,380.40
2019-05-09T20:54:50.719Z,324.60
2019-05-09T20:59:55.024Z,223.70
2019-05-09T21:04:58.975Z,160.37
2019-05-09T21:10:02.898Z,108.53
2019-05-09T21:15:06.830Z,75.87
2019-05-09T21:20:10.861Z,48.27
2019-05-09T21:25:14.885Z,31.90
2019-05-09T21:30:18.708Z,26.37
2019-05-09T21:35:23.027Z,23.07
2019-05-09T21:40:26.745Z,19.87
2019-05-09T21:45:30.676Z,18.73
2019-05-09T22:00:42.646Z,21.93
2019-05-09T22:05:46.362Z,16.27
2019-05-09T22:15:53.591Z,13.57
2019-05-09T22:20:57.329Z,13.27
2019-05-09T22:26:01.012Z,12.00
2019-05-09T22:31:04.742Z,11.73
2019-05-09T22:36:08.782Z,11.57
2019-05-09T22:41:13.039Z,11.10
2019-05-09T22:46:16.819Z,10.37
2019-05-09T22:51:20.741Z,9.60
2019-05-09T22:56:25.790Z,9.43
2019-05-09T23:01:29.718Z,8.83
2019-05-09T23:06:33.737Z,8.60
2019-05-09T23:11:38.041Z,8.77
2019-05-09T23:16:42.404Z,8.25
2019-05-09T23:26:49.842Z,7.78
2019-05-09T23:31:57.774Z,8.00
2019-05-09T23:37:01.791Z,7.87
2019-05-09T23:42:05.813Z,7.80
2019-05-09T23:47:09.727Z,7.20
2019-05-09T23:52:13.656Z,6.23
2019-05-09T23:57:35.452Z,6.40
